Terminal Aerodrome Forecast
Issued by NWS

Home | Current Version | Previous Version | Text Only | Print | Product List | Glossary On
Versions: 1 2 3 4 5 6 7 8 9 10 11 12 13 14 15 16 17 18 19 20 21 22
000
FTUS41 KPBZ 040804 AAA
TAFZZV
TAF AMD
KZZV 040804Z 0408/0506 VRB03KT 1SM BR VV005
      TEMPO 0408/0411 3/4SM BR VV002
     FM041300 34005KT P6SM SCT040=

USA.gov is the U.S. government's official web portal to all federal, state and local government web resources and services.